createdAt,value
2018-03-07T00:00:19.771Z,91.19
2018-03-07T00:02:48.232Z,90.95
2018-03-07T00:05:15.722Z,90.90
2018-03-07T00:07:43.252Z,91.24
2018-03-07T00:10:10.788Z,91.54
2018-03-07T00:12:38.247Z,91.47
2018-03-07T00:15:06.091Z,90.70
2018-03-07T00:17:33.575Z,89.60
2018-03-07T00:20:01.100Z,87.34
2018-03-07T00:22:28.831Z,85.83
2018-03-07T00:24:56.353Z,84.70
2018-03-07T00:27:23.817Z,84.82
2018-03-07T00:29:52.056Z,84.96
2018-03-07T00:32:19.511Z,85.16
2018-03-07T00:34:47.391Z,84.49
2018-03-07T00:37:15.279Z,84.45
2018-03-07T00:39:43.059Z,84.20
2018-03-07T00:42:11.728Z,84.53
2018-03-07T00:44:39.737Z,86.93
2018-03-07T00:47:08.111Z,88.00
2018-03-07T00:49:36.536Z,88.55
2018-03-07T00:52:04.163Z,87.42
2018-03-07T00:54:31.643Z,85.91
2018-03-07T00:56:59.132Z,86.05
2018-03-07T00:59:27.425Z,85.69
2018-03-07T01:01:55.184Z,85.18
2018-03-07T01:04:22.670Z,85.81
2018-03-07T01:06:50.587Z,85.35
2018-03-07T01:09:18.370Z,85.17
2018-03-07T01:11:45.837Z,85.01
2018-03-07T01:14:13.311Z,83.85
2018-03-07T01:16:41.068Z,83.52
2018-03-07T01:19:08.546Z,83.67
2018-03-07T01:21:36.054Z,83.86
2018-03-07T01:24:04.191Z,84.21
2018-03-07T01:26:31.675Z,83.82
2018-03-07T01:28:59.143Z,83.31
2018-03-07T01:31:26.659Z,84.09
2018-03-07T01:33:54.352Z,84.02
2018-03-07T01:36:21.836Z,84.70
2018-03-07T01:38:50.116Z,85.01
2018-03-07T01:41:17.571Z,85.78
2018-03-07T01:43:45.051Z,86.06
2018-03-07T01:46:13.980Z,86.09
2018-03-07T01:48:41.696Z,86.34
2018-03-07T01:51:09.183Z,86.74
2018-03-07T01:53:37.642Z,87.19
2018-03-07T01:56:05.163Z,87.48
2018-03-07T01:58:32.691Z,87.97
2018-03-07T02:01:00.867Z,88.42
2018-03-07T02:03:28.652Z,88.77
2018-03-07T02:05:56.135Z,88.64
2018-03-07T02:08:23.647Z,88.72
2018-03-07T02:10:52.658Z,89.03
2018-03-07T02:13:20.219Z,89.31
2018-03-07T02:15:48.019Z,89.57
2018-03-07T02:18:15.480Z,89.91
2018-03-07T02:20:43.719Z,90.16
2018-03-07T02:23:11.231Z,90.40
2018-03-07T02:25:38.731Z,90.52
2018-03-07T02:28:06.572Z,90.76
2018-03-07T02:30:34.095Z,90.95
2018-03-07T02:33:01.593Z,91.03
2018-03-07T02:35:29.125Z,91.17
2018-03-07T02:37:56.638Z,91.26
2018-03-07T02:40:24.571Z,91.43
2018-03-07T02:42:52.057Z,91.45
2018-03-07T02:45:19.527Z,91.65
2018-03-07T02:47:47.406Z,91.88
2018-03-07T02:50:15.405Z,92.08
2018-03-07T02:52:42.925Z,91.93
2018-03-07T02:55:10.412Z,91.97
2018-03-07T02:57:37.952Z,92.00
2018-03-07T03:00:05.416Z,91.95
2018-03-07T03:02:32.941Z,91.72
2018-03-07T03:05:00.399Z,91.82
2018-03-07T03:07:28.441Z,91.79
2018-03-07T03:09:56.117Z,91.74
2018-03-07T03:12:23.624Z,91.81
2018-03-07T03:14:51.353Z,91.71
2018-03-07T03:17:18.872Z,91.69
2018-03-07T03:19:47.134Z,91.74
2018-03-07T03:22:14.619Z,91.83
2018-03-07T03:24:42.470Z,91.77
2018-03-07T03:27:10.368Z,91.84
2018-03-07T03:29:38.067Z,91.87
2018-03-07T03:32:05.627Z,91.97
2018-03-07T03:34:33.355Z,92.02
2018-03-07T03:37:00.844Z,92.13
2018-03-07T03:39:28.383Z,92.21
2018-03-07T03:41:55.863Z,92.27
2018-03-07T03:44:24.442Z,92.29
2018-03-07T03:46:53.355Z,92.47
2018-03-07T03:49:20.846Z,92.57
2018-03-07T03:51:48.767Z,92.54
2018-03-07T03:54:16.235Z,92.63
2018-03-07T03:56:44.260Z,92.60
2018-03-07T03:59:11.766Z,92.58
2018-03-07T04:01:39.276Z,92.57
2018-03-07T04:04:06.731Z,92.65
2018-03-07T04:06:34.214Z,92.73
2018-03-07T04:09:02.071Z,92.84
2018-03-07T04:11:30.440Z,92.92
2018-03-07T04:13:57.932Z,92.97
2018-03-07T04:16:25.393Z,92.79
2018-03-07T04:18:53.147Z,92.34
2018-03-07T04:21:21.074Z,92.16
2018-03-07T04:23:48.552Z,91.81
2018-03-07T04:26:16.011Z,91.88
2018-03-07T04:28:43.720Z,91.74
2018-03-07T04:31:12.291Z,91.82
2018-03-07T04:33:39.799Z,91.66
2018-03-07T04:36:07.495Z,91.25
2018-03-07T04:38:35.040Z,91.25
2018-03-07T04:41:03.387Z,91.20
2018-03-07T04:43:30.899Z,90.90
2018-03-07T04:45:58.370Z,91.04
2018-03-07T04:48:26.143Z,91.11
2018-03-07T04:50:53.607Z,91.18
2018-03-07T04:53:21.137Z,91.20
2018-03-07T04:55:48.980Z,91.23
2018-03-07T04:58:17.326Z,91.09
2018-03-07T05:00:44.815Z,91.24
2018-03-07T05:03:12.366Z,91.32
2018-03-07T05:05:39.828Z,91.27
2018-03-07T05:08:07.335Z,91.15
2018-03-07T05:10:34.886Z,91.19
2018-03-07T05:13:02.583Z,91.08
2018-03-07T05:15:30.635Z,91.01
2018-03-07T05:17:58.151Z,91.15
2018-03-07T05:20:25.991Z,91.41
2018-03-07T05:22:53.464Z,91.75
2018-03-07T05:25:20.947Z,91.91
2018-03-07T05:27:48.927Z,91.99
2018-03-07T05:30:16.390Z,92.29
2018-03-07T05:32:44.783Z,92.66
2018-03-07T05:35:12.349Z,92.57
2018-03-07T05:37:39.855Z,92.53
2018-03-07T05:40:07.336Z,92.53
2018-03-07T05:42:35.788Z,92.64
2018-03-07T05:45:03.387Z,92.68
2018-03-07T05:47:30.848Z,92.79
2018-03-07T05:49:58.331Z,93.18
2018-03-07T05:52:25.809Z,93.28
2018-03-07T05:54:53.552Z,93.50
2018-03-07T05:57:21.495Z,93.57
2018-03-07T05:59:48.974Z,93.71
2018-03-07T06:02:16.852Z,93.83
2018-03-07T06:04:44.407Z,93.90
2018-03-07T06:07:12.124Z,93.95
2018-03-07T06:09:39.992Z,93.68
2018-03-07T06:12:07.515Z,93.62
2018-03-07T06:14:35.038Z,93.27
2018-03-07T06:17:02.787Z,93.11
2018-03-07T06:19:31.205Z,92.96
2018-03-07T06:21:59.579Z,93.01
2018-03-07T06:24:33.539Z,92.83
2018-03-07T06:27:01.105Z,92.39
2018-03-07T06:29:28.891Z,91.86
2018-03-07T06:31:56.655Z,91.17
2018-03-07T06:34:24.567Z,90.88
2018-03-07T06:36:52.028Z,90.86
2018-03-07T06:39:20.190Z,90.75
2018-03-07T06:41:47.656Z,90.71
2018-03-07T06:44:15.161Z,90.64
2018-03-07T06:46:43.569Z,90.74
2018-03-07T06:49:11.056Z,90.64
2018-03-07T06:51:38.535Z,90.19
2018-03-07T06:54:06.093Z,90.31
2018-03-07T06:56:34.164Z,90.48
2018-03-07T06:59:01.661Z,90.46
2018-03-07T07:01:29.199Z,90.54
2018-03-07T07:03:56.733Z,90.33
2018-03-07T07:06:25.527Z,90.09
2018-03-07T07:08:54.158Z,89.76
2018-03-07T07:11:21.910Z,89.30
2018-03-07T07:13:50.337Z,89.10
2018-03-07T07:16:17.832Z,89.32
2018-03-07T07:18:45.768Z,89.01
2018-03-07T07:21:14.095Z,88.21
2018-03-07T07:23:41.543Z,88.63
2018-03-07T07:26:09.124Z,88.24
2018-03-07T07:28:36.588Z,87.48
2018-03-07T07:31:04.070Z,87.03
2018-03-07T07:33:31.544Z,87.02
2018-03-07T07:35:59.110Z,87.31
2018-03-07T07:38:26.644Z,86.78
2018-03-07T07:40:54.863Z,87.17
2018-03-07T07:43:22.553Z,86.77
2018-03-07T07:45:50.093Z,85.79
2018-03-07T07:48:17.627Z,85.74
2018-03-07T07:50:45.124Z,85.43
2018-03-07T07:53:12.591Z,84.47
2018-03-07T07:55:40.066Z,84.35
2018-03-07T07:58:08.029Z,84.49
2018-03-07T08:00:36.733Z,84.94
2018-03-07T08:03:04.471Z,85.12
2018-03-07T08:05:32.251Z,85.00
2018-03-07T08:07:59.796Z,85.64
2018-03-07T08:10:27.271Z,85.63
2018-03-07T08:12:55.210Z,85.42
2018-03-07T08:15:22.916Z,86.18
2018-03-07T08:17:50.851Z,86.09
2018-03-07T08:20:18.583Z,86.72
2018-03-07T08:22:46.129Z,86.81
2018-03-07T08:25:13.636Z,87.05
2018-03-07T08:27:41.388Z,87.25
2018-03-07T08:30:08.881Z,87.25
2018-03-07T08:32:37.486Z,87.64
2018-03-07T08:35:04.956Z,88.18
2018-03-07T08:37:32.459Z,87.71
2018-03-07T08:39:59.922Z,88.35
2018-03-07T08:42:28.349Z,89.20
2018-03-07T08:44:56.169Z,89.55
2018-03-07T08:47:23.655Z,89.41
2018-03-07T08:49:52.072Z,88.51
2018-03-07T08:52:19.551Z,88.78
2018-03-07T08:54:47.054Z,87.11
2018-03-07T08:57:14.899Z,87.08
2018-03-07T08:59:42.627Z,86.80
2018-03-07T09:02:11.287Z,88.28
2018-03-07T09:04:38.748Z,89.30
2018-03-07T09:07:06.527Z,90.00
2018-03-07T09:09:34.027Z,89.82
2018-03-07T09:12:01.556Z,90.11
2018-03-07T09:14:29.179Z,89.33
2018-03-07T09:16:57.045Z,89.68
2018-03-07T09:19:24.512Z,88.62
2018-03-07T09:21:52.083Z,88.86
2018-03-07T09:24:20.215Z,88.70
2018-03-07T09:26:47.761Z,88.62
2018-03-07T09:29:15.302Z,87.34
2018-03-07T09:31:42.789Z,87.85
2018-03-07T09:34:10.783Z,86.64
2018-03-07T09:36:38.791Z,84.96
2018-03-07T09:39:06.254Z,84.76
2018-03-07T09:41:33.739Z,84.38
2018-03-07T09:44:01.956Z,83.60
2018-03-07T09:46:30.616Z,82.40
2018-03-07T09:48:58.332Z,82.82
2018-03-07T09:51:26.784Z,81.56
2018-03-07T09:53:55.188Z,80.92
2018-03-07T09:56:22.759Z,82.05
2018-03-07T09:58:50.187Z,81.26
2018-03-07T10:01:17.644Z,79.42
2018-03-07T10:03:45.512Z,78.76
2018-03-07T10:06:13.393Z,78.07
2018-03-07T10:08:41.112Z,78.08
2018-03-07T10:11:08.620Z,79.67
2018-03-07T10:13:36.216Z,76.28
2018-03-07T10:16:03.688Z,76.27
2018-03-07T10:18:31.218Z,74.64
2018-03-07T10:20:59.154Z,75.36
2018-03-07T10:23:26.624Z,74.36
2018-03-07T10:25:54.111Z,75.43
2018-03-07T10:28:21.644Z,73.83
2018-03-07T10:30:49.110Z,73.68
2018-03-07T10:33:22.268Z,74.43
2018-03-07T10:35:50.246Z,76.12
2018-03-07T10:38:18.254Z,73.23
2018-03-07T10:40:47.035Z,72.18
2018-03-07T10:43:14.515Z,74.03
2018-03-07T10:45:42.261Z,72.88
2018-03-07T10:48:09.741Z,73.97
2018-03-07T10:50:37.440Z,73.47
2018-03-07T10:53:04.971Z,73.35
2018-03-07T10:55:32.440Z,74.29
2018-03-07T10:57:59.919Z,73.66
2018-03-07T11:00:32.913Z,73.47
2018-03-07T11:03:00.758Z,71.91
2018-03-07T11:05:28.926Z,72.37
2018-03-07T11:07:56.700Z,74.56
2018-03-07T11:10:24.197Z,74.14
2018-03-07T11:12:52.583Z,72.67
2018-03-07T11:15:20.384Z,71.23
2018-03-07T11:17:47.864Z,71.60
2018-03-07T11:20:15.551Z,69.87
2018-03-07T11:22:43.093Z,72.06
2018-03-07T11:25:10.575Z,71.34
2018-03-07T11:27:38.119Z,71.14
2018-03-07T11:30:05.809Z,70.91
2018-03-07T11:32:33.643Z,70.18
2018-03-07T11:35:01.315Z,71.68
2018-03-07T11:37:28.792Z,70.71
2018-03-07T11:39:56.305Z,71.40
2018-03-07T11:42:24.659Z,72.57
2018-03-07T11:44:52.697Z,73.59
2018-03-07T11:47:20.158Z,72.99
2018-03-07T11:49:47.630Z,73.49
2018-03-07T11:52:15.088Z,75.13
2018-03-07T11:54:42.616Z,75.01
2018-03-07T11:57:10.075Z,74.30
2018-03-07T11:59:37.549Z,74.58
2018-03-07T12:02:05.023Z,74.08
2018-03-07T12:04:32.552Z,74.88
2018-03-07T12:07:00.047Z,74.55
2018-03-07T12:09:27.571Z,74.47
2018-03-07T12:11:55.384Z,74.26
2018-03-07T12:14:23.639Z,73.59
2018-03-07T12:16:52.950Z,74.16
2018-03-07T12:19:20.662Z,74.25
2018-03-07T12:21:49.083Z,74.40
2018-03-07T12:24:16.554Z,74.72
2018-03-07T12:26:44.009Z,75.16
2018-03-07T12:29:11.577Z,74.34
2018-03-07T12:31:39.743Z,73.77
2018-03-07T12:34:07.475Z,73.62
2018-03-07T12:36:35.238Z,72.84
2018-03-07T12:39:02.715Z,73.10
2018-03-07T12:41:30.204Z,72.67
2018-03-07T12:43:57.765Z,73.46
2018-03-07T12:46:25.258Z,73.10
2018-03-07T12:48:52.775Z,72.26
2018-03-07T12:51:20.468Z,73.66
2018-03-07T12:53:47.983Z,73.50
2018-03-07T12:56:15.471Z,72.80
2018-03-07T12:58:43.817Z,72.55
2018-03-07T13:01:12.395Z,71.29
2018-03-07T13:03:40.804Z,71.14
2018-03-07T13:06:08.255Z,71.25
2018-03-07T13:08:36.101Z,70.05
2018-03-07T13:11:03.840Z,70.82
2018-03-07T13:13:31.328Z,70.91
2018-03-07T13:15:58.881Z,70.22
2018-03-07T13:18:26.352Z,71.37
2018-03-07T13:20:54.072Z,70.91
2018-03-07T13:23:21.992Z,70.08
2018-03-07T13:25:49.475Z,70.12
2018-03-07T13:28:17.621Z,71.37
2018-03-07T13:30:45.538Z,72.61
2018-03-07T13:33:12.996Z,72.48
2018-03-07T13:35:40.564Z,71.76
2018-03-07T13:38:09.736Z,71.35
2018-03-07T13:40:37.316Z,71.97
2018-03-07T13:43:04.836Z,70.90
2018-03-07T13:45:32.347Z,71.09
2018-03-07T13:47:59.796Z,71.86
2018-03-07T13:50:27.286Z,72.35
2018-03-07T13:52:55.242Z,72.01
2018-03-07T13:55:23.194Z,72.31
2018-03-07T13:57:51.782Z,72.89
2018-03-07T14:00:19.492Z,72.38
2018-03-07T14:02:47.603Z,72.96
2018-03-07T14:05:15.079Z,73.73
2018-03-07T14:07:42.587Z,72.47
2018-03-07T14:10:10.442Z,71.91
2018-03-07T14:12:37.912Z,71.17
2018-03-07T14:15:05.611Z,70.64
2018-03-07T14:17:33.109Z,71.05
2018-03-07T14:20:00.638Z,70.22
2018-03-07T14:22:28.133Z,70.51
2018-03-07T14:24:57.234Z,69.66
2018-03-07T14:29:57.792Z,68.24
2018-03-07T14:32:25.720Z,69.46
2018-03-07T14:34:53.188Z,70.10
2018-03-07T14:37:21.472Z,69.55
2018-03-07T14:39:49.044Z,68.61
2018-03-07T14:42:16.627Z,68.61
2018-03-07T14:44:44.500Z,68.50
2018-03-07T14:47:12.489Z,68.10
2018-03-07T14:49:40.184Z,67.25
2018-03-07T14:52:07.655Z,67.54
2018-03-07T14:54:35.544Z,67.68
2018-03-07T14:57:03.621Z,67.37
2018-03-07T14:59:31.107Z,67.96
2018-03-07T15:01:58.987Z,67.42
2018-03-07T15:04:26.526Z,67.84
2018-03-07T15:06:54.203Z,68.83
2018-03-07T15:09:22.028Z,69.44
2018-03-07T15:11:49.532Z,68.49
2018-03-07T15:14:17.231Z,69.59
2018-03-07T15:16:45.417Z,69.10
2018-03-07T15:19:13.243Z,69.80
2018-03-07T15:21:40.739Z,70.03
2018-03-07T15:24:08.220Z,69.85
2018-03-07T15:26:35.731Z,69.81
2018-03-07T15:29:03.236Z,69.37
2018-03-07T15:31:30.724Z,69.01
2018-03-07T15:33:58.271Z,68.98
2018-03-07T15:36:25.975Z,68.88
2018-03-07T15:38:53.497Z,69.17
2018-03-07T15:41:21.017Z,70.22
2018-03-07T15:43:48.464Z,69.67
2018-03-07T15:46:15.951Z,69.23
2018-03-07T15:48:44.475Z,68.80
2018-03-07T15:51:12.105Z,68.93
2018-03-07T15:53:39.568Z,70.06
2018-03-07T15:56:07.516Z,69.83
2018-03-07T15:58:34.969Z,70.22
2018-03-07T16:01:02.472Z,70.44
2018-03-07T16:03:29.966Z,70.23
2018-03-07T16:05:58.401Z,69.92
2018-03-07T16:08:26.232Z,69.44
2018-03-07T16:10:53.859Z,69.92
2018-03-07T16:13:21.336Z,70.21
2018-03-07T16:15:48.860Z,70.84
2018-03-07T16:18:16.428Z,70.39
2018-03-07T16:20:43.878Z,69.59
2018-03-07T16:23:11.379Z,69.68
2018-03-07T16:25:38.923Z,69.26
2018-03-07T16:28:06.423Z,68.49
2018-03-07T16:30:35.668Z,68.75
2018-03-07T16:33:03.370Z,69.11
2018-03-07T16:35:30.901Z,68.56
2018-03-07T16:37:58.679Z,69.30
2018-03-07T16:40:26.172Z,68.94
2018-03-07T16:42:53.707Z,69.46
2018-03-07T16:45:22.177Z,69.54
2018-03-07T16:47:49.707Z,70.16
2018-03-07T16:50:17.590Z,70.78
2018-03-07T16:52:46.047Z,70.68
2018-03-07T16:55:13.570Z,70.85
2018-03-07T16:57:41.147Z,71.11
2018-03-07T17:00:08.601Z,71.67
2018-03-07T17:02:36.088Z,71.78
2018-03-07T17:05:03.535Z,71.76
2018-03-07T17:07:31.499Z,71.86
2018-03-07T17:09:59.187Z,71.84
2018-03-07T17:12:27.035Z,71.89
2018-03-07T17:14:54.856Z,72.49
2018-03-07T17:17:22.379Z,72.35
2018-03-07T17:19:49.830Z,72.42
2018-03-07T17:22:17.359Z,72.11
2018-03-07T17:24:45.840Z,72.02
2018-03-07T17:27:13.544Z,72.95
2018-03-07T17:29:41.035Z,72.34
2018-03-07T17:32:08.511Z,72.52
2018-03-07T17:34:35.998Z,72.77
2018-03-07T17:37:03.483Z,72.83
2018-03-07T17:39:30.956Z,72.88
2018-03-07T17:41:58.415Z,72.97
2018-03-07T17:44:25.956Z,73.10
2018-03-07T17:46:53.465Z,72.96
2018-03-07T17:49:21.175Z,73.84
2018-03-07T17:51:48.622Z,73.87
2018-03-07T17:54:16.127Z,74.69
2018-03-07T17:56:43.596Z,75.88
2018-03-07T17:59:11.074Z,76.84
2018-03-07T18:01:39.144Z,76.12
2018-03-07T18:04:07.410Z,76.71
2018-03-07T18:06:34.944Z,76.27
2018-03-07T18:09:02.417Z,76.75
2018-03-07T18:11:30.757Z,76.63
2018-03-07T18:13:58.233Z,76.87
2018-03-07T18:16:25.692Z,77.01
2018-03-07T18:18:53.207Z,77.72
2018-03-07T18:21:21.253Z,78.44
2018-03-07T18:23:49.112Z,78.87
2018-03-07T18:26:16.580Z,79.02
2018-03-07T18:28:44.671Z,80.22
2018-03-07T18:31:12.231Z,81.09
2018-03-07T18:33:39.712Z,81.50
2018-03-07T18:36:07.613Z,82.94
2018-03-07T18:38:36.080Z,82.41
2018-03-07T18:41:03.903Z,83.43
2018-03-07T18:43:31.420Z,82.54
2018-03-07T18:45:58.926Z,83.21
2018-03-07T18:48:26.636Z,82.66
2018-03-07T18:50:54.399Z,84.08
2018-03-07T18:53:21.899Z,83.11
2018-03-07T18:55:49.413Z,82.89
2018-03-07T18:58:18.640Z,83.48
2018-03-07T19:00:46.091Z,83.74
2018-03-07T19:03:13.920Z,84.01
2018-03-07T19:05:43.068Z,83.05
2018-03-07T19:08:10.576Z,83.60
2018-03-07T19:10:39.640Z,83.15
2018-03-07T19:13:07.452Z,82.78
2018-03-07T19:15:35.899Z,82.94
2018-03-07T19:18:04.255Z,81.63
2018-03-07T19:20:32.533Z,82.23
2018-03-07T19:23:00.371Z,82.36
2018-03-07T19:25:28.361Z,82.83
2018-03-07T19:27:56.953Z,81.83
2018-03-07T19:30:24.471Z,81.56
2018-03-07T19:32:51.948Z,81.60
2018-03-07T19:35:19.452Z,81.81
2018-03-07T19:37:46.911Z,81.57
2018-03-07T19:40:15.446Z,81.86
2018-03-07T19:42:42.959Z,81.57
2018-03-07T19:45:10.715Z,81.46
2018-03-07T19:47:38.405Z,82.20
2018-03-07T19:50:05.972Z,82.62
2018-03-07T19:52:33.449Z,81.84
2018-03-07T19:55:01.214Z,82.15
2018-03-07T19:57:29.028Z,82.22
2018-03-07T19:59:56.529Z,82.20
2018-03-07T20:02:24.020Z,82.64
2018-03-07T20:04:52.311Z,82.15
2018-03-07T20:07:20.156Z,82.33
2018-03-07T20:09:48.454Z,82.11
2018-03-07T20:12:16.426Z,82.93
2018-03-07T20:14:43.958Z,82.60
2018-03-07T20:17:11.460Z,82.57
2018-03-07T20:19:39.767Z,82.45
2018-03-07T20:22:07.243Z,82.36
2018-03-07T20:24:35.982Z,82.69
2018-03-07T20:27:03.758Z,82.66
2018-03-07T20:29:31.315Z,82.85
2018-03-07T20:31:59.593Z,82.94
2018-03-07T20:34:27.066Z,82.70
2018-03-07T20:36:54.523Z,82.80
2018-03-07T20:39:22.057Z,82.78
2018-03-07T20:41:51.864Z,82.95
2018-03-07T20:44:19.663Z,82.55
2018-03-07T20:46:47.175Z,82.87
2018-03-07T20:49:17.033Z,82.98
2018-03-07T20:51:47.091Z,83.00
2018-03-07T20:54:19.328Z,83.10
2018-03-07T20:56:48.110Z,83.19
2018-03-07T20:59:15.563Z,83.52
2018-03-07T21:01:44.962Z,83.98
2018-03-07T21:04:13.227Z,84.27
2018-03-07T21:06:40.990Z,84.95
2018-03-07T21:09:08.705Z,85.04
2018-03-07T21:11:36.385Z,85.91
2018-03-07T21:14:03.893Z,86.80
2018-03-07T21:16:31.753Z,86.86
2018-03-07T21:18:59.398Z,87.53
2018-03-07T21:21:27.062Z,87.94
2018-03-07T21:23:54.902Z,87.96
2018-03-07T21:26:22.660Z,87.03
2018-03-07T21:28:51.524Z,86.38
2018-03-07T21:31:19.326Z,84.53
2018-03-07T21:33:47.046Z,83.04
2018-03-07T21:36:15.127Z,83.49
2018-03-07T21:38:43.843Z,82.18
2018-03-07T21:41:13.630Z,82.14
2018-03-07T21:43:43.473Z,81.88
2018-03-07T21:46:11.362Z,82.07
2018-03-07T21:48:39.104Z,80.92
2018-03-07T21:51:07.346Z,82.21
2018-03-07T21:53:35.513Z,81.55
2018-03-07T21:56:03.386Z,81.62
2018-03-07T21:58:31.448Z,81.79
2018-03-07T22:01:01.225Z,82.01
2018-03-07T22:03:28.866Z,82.65
2018-03-07T22:05:57.420Z,82.73
2018-03-07T22:08:26.838Z,82.71
2018-03-07T22:10:56.004Z,82.83
2018-03-07T22:13:24.465Z,82.62
2018-03-07T22:15:54.133Z,82.46
2018-03-07T22:18:22.592Z,82.89
2018-03-07T22:20:50.271Z,82.89
2018-03-07T22:23:17.739Z,83.32
2018-03-07T22:25:45.509Z,83.35
2018-03-07T22:28:13.127Z,83.60
2018-03-07T22:30:41.299Z,83.26
2018-03-07T22:33:09.709Z,83.24
2018-03-07T22:35:37.255Z,83.27
2018-03-07T22:38:04.797Z,83.14
2018-03-07T22:40:32.255Z,83.04
2018-03-07T22:43:00.553Z,82.68
2018-03-07T22:45:28.675Z,82.70
2018-03-07T22:47:56.578Z,82.57
2018-03-07T22:50:24.565Z,82.82
2018-03-07T22:52:52.091Z,82.68
2018-03-07T22:55:20.742Z,82.80
2018-03-07T22:57:48.234Z,82.26
2018-03-07T23:00:25.086Z,81.60
2018-03-07T23:02:52.869Z,81.54
2018-03-07T23:05:21.375Z,81.88
2018-03-07T23:07:49.088Z,81.35
2018-03-07T23:10:16.564Z,80.82
2018-03-07T23:12:44.886Z,80.70
2018-03-07T23:15:12.571Z,80.78
2018-03-07T23:17:40.078Z,80.89
2018-03-07T23:20:07.558Z,80.64
2018-03-07T23:22:35.097Z,80.96
2018-03-07T23:25:02.611Z,80.83
2018-03-07T23:27:30.318Z,80.58
2018-03-07T23:29:57.872Z,80.27
2018-03-07T23:32:25.403Z,80.23
2018-03-07T23:34:52.858Z,79.81
2018-03-07T23:37:20.701Z,80.00
2018-03-07T23:39:48.952Z,80.43
2018-03-07T23:42:16.464Z,80.19
2018-03-07T23:44:43.967Z,80.02
2018-03-07T23:47:11.467Z,80.10
2018-03-07T23:49:39.497Z,80.29
2018-03-07T23:52:07.206Z,79.73
2018-03-07T23:54:35.285Z,79.12
2018-03-07T23:57:03.371Z,79.19
2018-03-07T23:59:30.872Z,78.89
